sensor_id;sensor_type;location;lat;lon;timestamp;temperature;humidity
3846;DHT22;1938;50.812;7.738;2023-04-25T00:00:59;4.50;99.90
3846;DHT22;1938;50.812;7.738;2023-04-25T00:03:24;4.30;99.90
3846;DHT22;1938;50.812;7.738;2023-04-25T00:05:50;4.40;99.90
3846;DHT22;1938;50.812;7.738;2023-04-25T00:08:17;4.30;99.90
3846;DHT22;1938;50.812;7.738;2023-04-25T00:10:43;4.20;99.90
3846;DHT22;1938;50.812;7.738;2023-04-25T00:13:09;4.20;99.90
3846;DHT22;1938;50.812;7.738;2023-04-25T00:15:36;4.10;99.90
3846;DHT22;1938;50.812;7.738;2023-04-25T00:18:03;4.10;99.90
3846;DHT22;1938;50.812;7.738;2023-04-25T00:20:29;4.00;99.90
3846;DHT22;1938;50.812;7.738;2023-04-25T00:22:55;4.10;99.90
3846;DHT22;1938;50.812;7.738;2023-04-25T00:25:21;4.00;99.90
3846;DHT22;1938;50.812;7.738;2023-04-25T00:27:46;3.90;99.90
3846;DHT22;1938;50.812;7.738;2023-04-25T00:30:12;4.00;99.90
3846;DHT22;1938;50.812;7.738;2023-04-25T00:32:38;4.00;99.90
3846;DHT22;1938;50.812;7.738;2023-04-25T00:35:04;4.10;99.90
3846;DHT22;1938;50.812;7.738;2023-04-25T00:37:30;3.90;99.90
3846;DHT22;1938;50.812;7.738;2023-04-25T00:39:57;3.90;99.90
3846;DHT22;1938;50.812;7.738;2023-04-25T00:42:24;3.90;99.90
3846;DHT22;1938;50.812;7.738;2023-04-25T00:44:52;3.90;99.90
3846;DHT22;1938;50.812;7.738;2023-04-25T00:47:18;3.90;99.90
3846;DHT22;1938;50.812;7.738;2023-04-25T00:49:43;4.00;99.90
3846;DHT22;1938;50.812;7.738;2023-04-25T00:52:10;3.90;99.90
3846;DHT22;1938;50.812;7.738;2023-04-25T00:54:36;3.90;99.90
3846;DHT22;1938;50.812;7.738;2023-04-25T00:57:02;3.80;99.90
3846;DHT22;1938;50.812;7.738;2023-04-25T00:59:28;3.80;99.90
3846;DHT22;1938;50.812;7.738;2023-04-25T01:01:55;3.80;99.90
3846;DHT22;1938;50.812;7.738;2023-04-25T01:04:21;3.70;99.90
3846;DHT22;1938;50.812;7.738;2023-04-25T01:06:48;3.50;99.90
3846;DHT22;1938;50.812;7.738;2023-04-25T01:09:13;3.40;99.90
3846;DHT22;1938;50.812;7.738;2023-04-25T01:11:40;3.40;99.90
3846;DHT22;1938;50.812;7.738;2023-04-25T01:14:06;3.40;99.90
3846;DHT22;1938;50.812;7.738;2023-04-25T01:16:31;3.40;99.90
3846;DHT22;1938;50.812;7.738;2023-04-25T01:18:58;3.30;99.90
3846;DHT22;1938;50.812;7.738;2023-04-25T01:21:24;3.30;99.90
3846;DHT22;1938;50.812;7.738;2023-04-25T01:23:53;3.20;99.90
3846;DHT22;1938;50.812;7.738;2023-04-25T01:26:20;3.20;99.90
3846;DHT22;1938;50.812;7.738;2023-04-25T01:28:47;3.10;99.90
3846;DHT22;1938;50.812;7.738;2023-04-25T01:31:14;3.10;99.90
3846;DHT22;1938;50.812;7.738;2023-04-25T01:33:40;3.10;99.90
3846;DHT22;1938;50.812;7.738;2023-04-25T01:36:06;3.20;99.90
3846;DHT22;1938;50.812;7.738;2023-04-25T01:38:32;3.10;99.90
3846;DHT22;1938;50.812;7.738;2023-04-25T01:40:58;3.10;99.90
3846;DHT22;1938;50.812;7.738;2023-04-25T01:43:24;3.20;99.90
3846;DHT22;1938;50.812;7.738;2023-04-25T01:45:50;3.20;99.90
3846;DHT22;1938;50.812;7.738;2023-04-25T01:48:16;3.10;99.90
3846;DHT22;1938;50.812;7.738;2023-04-25T01:50:43;3.10;99.90
3846;DHT22;1938;50.812;7.738;2023-04-25T01:53:09;3.10;99.90
3846;DHT22;1938;50.812;7.738;2023-04-25T01:55:36;3.00;99.90
3846;DHT22;1938;50.812;7.738;2023-04-25T01:58:03;3.10;99.90
3846;DHT22;1938;50.812;7.738;2023-04-25T02:00:28;3.10;99.90
3846;DHT22;1938;50.812;7.738;2023-04-25T02:02:58;3.10;99.90
3846;DHT22;1938;50.812;7.738;2023-04-25T02:05:23;3.30;99.90
3846;DHT22;1938;50.812;7.738;2023-04-25T02:07:50;3.30;99.90
3846;DHT22;1938;50.812;7.738;2023-04-25T02:10:15;3.40;99.90
3846;DHT22;1938;50.812;7.738;2023-04-25T02:12:41;3.40;99.90
3846;DHT22;1938;50.812;7.738;2023-04-25T02:15:07;3.40;99.90
3846;DHT22;1938;50.812;7.738;2023-04-25T02:17:32;3.40;99.90
3846;DHT22;1938;50.812;7.738;2023-04-25T02:19:58;3.50;99.90
3846;DHT22;1938;50.812;7.738;2023-04-25T02:22:24;3.50;99.90
3846;DHT22;1938;50.812;7.738;2023-04-25T02:24:49;3.30;99.90
3846;DHT22;1938;50.812;7.738;2023-04-25T02:27:15;3.30;99.90
3846;DHT22;1938;50.812;7.738;2023-04-25T02:29:40;3.30;99.90
3846;DHT22;1938;50.812;7.738;2023-04-25T02:32:06;3.20;99.90
3846;DHT22;1938;50.812;7.738;2023-04-25T02:34:32;3.20;99.90
3846;DHT22;1938;50.812;7.738;2023-04-25T02:36:57;3.30;99.90
3846;DHT22;1938;50.812;7.738;2023-04-25T02:39:23;3.30;99.90
3846;DHT22;1938;50.812;7.738;2023-04-25T02:41:50;3.40;99.90
3846;DHT22;1938;50.812;7.738;2023-04-25T02:44:16;3.30;99.90
3846;DHT22;1938;50.812;7.738;2023-04-25T02:46:41;3.30;99.90
3846;DHT22;1938;50.812;7.738;2023-04-25T02:49:08;3.30;99.90
3846;DHT22;1938;50.812;7.738;2023-04-25T02:51:33;3.30;99.90
3846;DHT22;1938;50.812;7.738;2023-04-25T02:53:59;3.30;99.90
3846;DHT22;1938;50.812;7.738;2023-04-25T02:56:25;3.20;99.90
3846;DHT22;1938;50.812;7.738;2023-04-25T02:58:51;3.20;99.90
3846;DHT22;1938;50.812;7.738;2023-04-25T03:01:17;3.30;99.90
3846;DHT22;1938;50.812;7.738;2023-04-25T03:03:42;3.20;99.90
3846;DHT22;1938;50.812;7.738;2023-04-25T03:06:08;3.20;99.90
3846;DHT22;1938;50.812;7.738;2023-04-25T03:08:34;3.30;99.90
3846;DHT22;1938;50.812;7.738;2023-04-25T03:11:00;3.20;99.90
3846;DHT22;1938;50.812;7.738;2023-04-25T03:13:25;3.20;99.90
3846;DHT22;1938;50.812;7.738;2023-04-25T03:15:52;3.10;99.90
3846;DHT22;1938;50.812;7.738;2023-04-25T03:18:18;3.20;99.90
3846;DHT22;1938;50.812;7.738;2023-04-25T03:20:43;3.20;99.90
3846;DHT22;1938;50.812;7.738;2023-04-25T03:23:09;3.10;99.90
3846;DHT22;1938;50.812;7.738;2023-04-25T03:25:35;3.20;99.90
3846;DHT22;1938;50.812;7.738;2023-04-25T03:28:00;3.10;99.90
3846;DHT22;1938;50.812;7.738;2023-04-25T03:30:26;3.10;99.90
3846;DHT22;1938;50.812;7.738;2023-04-25T03:32:52;3.00;99.90
3846;DHT22;1938;50.812;7.738;2023-04-25T03:35:18;2.80;99.90
3846;DHT22;1938;50.812;7.738;2023-04-25T03:37:43;2.80;99.90
3846;DHT22;1938;50.812;7.738;2023-04-25T03:40:11;2.70;99.90
3846;DHT22;1938;50.812;7.738;2023-04-25T03:42:36;2.70;99.90
3846;DHT22;1938;50.812;7.738;2023-04-25T03:45:02;2.70;99.90
3846;DHT22;1938;50.812;7.738;2023-04-25T03:47:28;2.70;99.90
3846;DHT22;1938;50.812;7.738;2023-04-25T03:49:53;2.60;99.90
3846;DHT22;1938;50.812;7.738;2023-04-25T03:52:19;2.60;99.90
3846;DHT22;1938;50.812;7.738;2023-04-25T03:54:44;2.50;99.90
3846;DHT22;1938;50.812;7.738;2023-04-25T03:57:10;2.50;99.90
3846;DHT22;1938;50.812;7.738;2023-04-25T03:59:36;2.50;99.90
3846;DHT22;1938;50.812;7.738;2023-04-25T04:02:01;2.50;99.90
3846;DHT22;1938;50.812;7.738;2023-04-25T04:04:27;2.40;99.90
3846;DHT22;1938;50.812;7.738;2023-04-25T04:06:52;2.50;99.90
3846;DHT22;1938;50.812;7.738;2023-04-25T04:09:18;2.50;99.90
3846;DHT22;1938;50.812;7.738;2023-04-25T04:11:44;2.50;99.90
3846;DHT22;1938;50.812;7.738;2023-04-25T04:14:10;2.50;99.90
3846;DHT22;1938;50.812;7.738;2023-04-25T04:16:36;2.50;99.90
3846;DHT22;1938;50.812;7.738;2023-04-25T04:19:02;2.60;99.90
3846;DHT22;1938;50.812;7.738;2023-04-25T04:21:27;2.60;99.90
3846;DHT22;1938;50.812;7.738;2023-04-25T04:23:54;2.70;99.90
3846;DHT22;1938;50.812;7.738;2023-04-25T04:26:20;2.80;99.90
3846;DHT22;1938;50.812;7.738;2023-04-25T04:28:49;2.80;99.90
3846;DHT22;1938;50.812;7.738;2023-04-25T04:31:16;2.90;99.90
3846;DHT22;1938;50.812;7.738;2023-04-25T04:33:43;2.90;99.90
3846;DHT22;1938;50.812;7.738;2023-04-25T04:36:10;2.90;99.90
3846;DHT22;1938;50.812;7.738;2023-04-25T04:38:35;2.90;99.90
3846;DHT22;1938;50.812;7.738;2023-04-25T04:41:01;2.90;99.90
3846;DHT22;1938;50.812;7.738;2023-04-25T04:43:28;2.90;99.90
3846;DHT22;1938;50.812;7.738;2023-04-25T04:45:54;2.90;99.90
3846;DHT22;1938;50.812;7.738;2023-04-25T04:48:21;2.90;99.90
3846;DHT22;1938;50.812;7.738;2023-04-25T04:50:47;3.10;99.90
3846;DHT22;1938;50.812;7.738;2023-04-25T04:53:13;3.40;99.90
3846;DHT22;1938;50.812;7.738;2023-04-25T04:55:39;3.50;99.90
3846;DHT22;1938;50.812;7.738;2023-04-25T04:58:06;3.60;99.90
3846;DHT22;1938;50.812;7.738;2023-04-25T05:00:32;3.60;99.90
3846;DHT22;1938;50.812;7.738;2023-04-25T05:02:58;3.50;99.90
3846;DHT22;1938;50.812;7.738;2023-04-25T05:05:24;3.50;99.90
3846;DHT22;1938;50.812;7.738;2023-04-25T05:07:50;3.70;99.90
3846;DHT22;1938;50.812;7.738;2023-04-25T05:10:19;3.60;99.90
3846;DHT22;1938;50.812;7.738;2023-04-25T05:12:45;3.60;99.90
3846;DHT22;1938;50.812;7.738;2023-04-25T05:15:11;3.60;99.90
3846;DHT22;1938;50.812;7.738;2023-04-25T05:17:37;3.60;99.90
3846;DHT22;1938;50.812;7.738;2023-04-25T05:20:03;3.60;99.90
3846;DHT22;1938;50.812;7.738;2023-04-25T05:22:31;3.60;99.90
3846;DHT22;1938;50.812;7.738;2023-04-25T05:24:56;3.70;99.90
3846;DHT22;1938;50.812;7.738;2023-04-25T05:27:22;3.60;99.90
3846;DHT22;1938;50.812;7.738;2023-04-25T05:29:47;3.60;99.90
3846;DHT22;1938;50.812;7.738;2023-04-25T05:32:13;3.70;99.90
3846;DHT22;1938;50.812;7.738;2023-04-25T05:34:38;3.70;99.90
3846;DHT22;1938;50.812;7.738;2023-04-25T05:37:04;3.80;99.90
3846;DHT22;1938;50.812;7.738;2023-04-25T05:39:29;3.80;99.90
3846;DHT22;1938;50.812;7.738;2023-04-25T05:41:56;3.70;99.90
3846;DHT22;1938;50.812;7.738;2023-04-25T05:44:21;3.80;99.90
3846;DHT22;1938;50.812;7.738;2023-04-25T05:46:47;3.80;99.90
3846;DHT22;1938;50.812;7.738;2023-04-25T05:49:12;3.80;99.90
3846;DHT22;1938;50.812;7.738;2023-04-25T05:51:38;3.90;99.90
3846;DHT22;1938;50.812;7.738;2023-04-25T05:54:04;4.00;99.90
3846;DHT22;1938;50.812;7.738;2023-04-25T05:56:29;4.20;99.90
3846;DHT22;1938;50.812;7.738;2023-04-25T05:58:55;4.40;99.90
3846;DHT22;1938;50.812;7.738;2023-04-25T06:01:22;4.70;99.90
3846;DHT22;1938;50.812;7.738;2023-04-25T06:03:48;4.90;99.90
3846;DHT22;1938;50.812;7.738;2023-04-25T06:06:14;5.10;99.90
3846;DHT22;1938;50.812;7.738;2023-04-25T06:08:40;5.40;99.90
3846;DHT22;1938;50.812;7.738;2023-04-25T06:11:05;5.60;99.90
3846;DHT22;1938;50.812;7.738;2023-04-25T06:13:31;5.80;99.90
3846;DHT22;1938;50.812;7.738;2023-04-25T06:15:57;6.00;99.90
3846;DHT22;1938;50.812;7.738;2023-04-25T06:18:23;6.20;99.90
3846;DHT22;1938;50.812;7.738;2023-04-25T06:20:49;6.20;99.90
3846;DHT22;1938;50.812;7.738;2023-04-25T06:23:14;6.40;99.90
3846;DHT22;1938;50.812;7.738;2023-04-25T06:25:40;6.50;99.90
3846;DHT22;1938;50.812;7.738;2023-04-25T06:28:05;6.60;99.90
3846;DHT22;1938;50.812;7.738;2023-04-25T06:30:31;6.80;99.90
3846;DHT22;1938;50.812;7.738;2023-04-25T06:32:56;6.90;99.90
3846;DHT22;1938;50.812;7.738;2023-04-25T06:35:22;7.20;99.90
3846;DHT22;1938;50.812;7.738;2023-04-25T06:37:47;7.40;99.90
3846;DHT22;1938;50.812;7.738;2023-04-25T06:40:13;7.50;99.90
3846;DHT22;1938;50.812;7.738;2023-04-25T06:42:39;7.60;99.90
3846;DHT22;1938;50.812;7.738;2023-04-25T06:45:04;7.50;99.90
3846;DHT22;1938;50.812;7.738;2023-04-25T06:47:30;7.50;99.90
3846;DHT22;1938;50.812;7.738;2023-04-25T06:49:56;7.50;99.90
3846;DHT22;1938;50.812;7.738;2023-04-25T06:52:22;7.50;99.90
3846;DHT22;1938;50.812;7.738;2023-04-25T06:54:48;7.60;99.90
3846;DHT22;1938;50.812;7.738;2023-04-25T06:57:14;7.60;99.90
3846;DHT22;1938;50.812;7.738;2023-04-25T06:59:40;7.60;44.50
3846;DHT22;1938;50.812;7.738;2023-04-25T07:02:05;7.90;9.30
3846;DHT22;1938;50.812;7.738;2023-04-25T07:04:31;8.50;10.00
3846;DHT22;1938;50.812;7.738;2023-04-25T07:06:57;9.30;5.40
3846;DHT22;1938;50.812;7.738;2023-04-25T07:09:22;9.90;28.50
3846;DHT22;1938;50.812;7.738;2023-04-25T07:11:48;10.60;41.60
3846;DHT22;1938;50.812;7.738;2023-04-25T07:14:14;11.30;99.90
3846;DHT22;1938;50.812;7.738;2023-04-25T07:16:40;11.00;99.90
3846;DHT22;1938;50.812;7.738;2023-04-25T07:19:05;10.50;99.90
3846;DHT22;1938;50.812;7.738;2023-04-25T07:21:31;9.70;99.90
3846;DHT22;1938;50.812;7.738;2023-04-25T07:23:57;8.90;80.10
3846;DHT22;1938;50.812;7.738;2023-04-25T07:26:23;8.50;99.90
3846;DHT22;1938;50.812;7.738;2023-04-25T07:28:48;8.00;1.00
3846;DHT22;1938;50.812;7.738;2023-04-25T07:31:17;7.50;99.90
3846;DHT22;1938;50.812;7.738;2023-04-25T07:33:44;7.20;99.90
3846;DHT22;1938;50.812;7.738;2023-04-25T07:36:10;6.80;1.00
3846;DHT22;1938;50.812;7.738;2023-04-25T07:38:36;6.70;99.90
3846;DHT22;1938;50.812;7.738;2023-04-25T07:41:01;6.40;1.00
3846;DHT22;1938;50.812;7.738;2023-04-25T07:43:27;6.20;99.90
3846;DHT22;1938;50.812;7.738;2023-04-25T07:45:52;5.90;99.90
3846;DHT22;1938;50.812;7.738;2023-04-25T07:48:18;5.90;1.00
3846;DHT22;1938;50.812;7.738;2023-04-25T07:50:44;5.80;99.90
3846;DHT22;1938;50.812;7.738;2023-04-25T07:53:09;5.90;1.00
3846;DHT22;1938;50.812;7.738;2023-04-25T07:55:35;5.80;99.90
3846;DHT22;1938;50.812;7.738;2023-04-25T07:58:01;5.70;99.90
3846;DHT22;1938;50.812;7.738;2023-04-25T08:00:28;5.90;99.90
3846;DHT22;1938;50.812;7.738;2023-04-25T08:02:54;6.10;28.80
3846;DHT22;1938;50.812;7.738;2023-04-25T08:05:19;6.20;1.00
3846;DHT22;1938;50.812;7.738;2023-04-25T08:07:45;6.80;20.60
3846;DHT22;1938;50.812;7.738;2023-04-25T08:10:11;7.20;99.90
3846;DHT22;1938;50.812;7.738;2023-04-25T08:12:36;7.50;99.90
3846;DHT22;1938;50.812;7.738;2023-04-25T08:15:02;7.70;99.90
3846;DHT22;1938;50.812;7.738;2023-04-25T08:17:28;8.20;99.30
3846;DHT22;1938;50.812;7.738;2023-04-25T08:19:53;9.30;1.00
3846;DHT22;1938;50.812;7.738;2023-04-25T08:22:19;10.10;99.90
3846;DHT22;1938;50.812;7.738;2023-04-25T08:24:44;11.40;56.20
3846;DHT22;1938;50.812;7.738;2023-04-25T08:27:10;12.20;99.90
3846;DHT22;1938;50.812;7.738;2023-04-25T08:29:36;11.40;99.90
3846;DHT22;1938;50.812;7.738;2023-04-25T08:32:02;10.40;99.90
3846;DHT22;1938;50.812;7.738;2023-04-25T08:34:27;9.20;99.90
3846;DHT22;1938;50.812;7.738;2023-04-25T08:36:53;8.80;99.90
3846;DHT22;1938;50.812;7.738;2023-04-25T08:39:18;8.30;99.90
3846;DHT22;1938;50.812;7.738;2023-04-25T08:41:44;8.00;99.90
3846;DHT22;1938;50.812;7.738;2023-04-25T08:44:10;7.60;1.00
3846;DHT22;1938;50.812;7.738;2023-04-25T08:46:38;7.30;99.90
3846;DHT22;1938;50.812;7.738;2023-04-25T08:49:06;7.20;1.00
3846;DHT22;1938;50.812;7.738;2023-04-25T08:51:33;7.10;1.00
3846;DHT22;1938;50.812;7.738;2023-04-25T08:54:09;7.10;99.90
3846;DHT22;1938;50.812;7.738;2023-04-25T08:56:40;7.00;99.90
3846;DHT22;1938;50.812;7.738;2023-04-25T08:59:06;7.00;1.00
3846;DHT22;1938;50.812;7.738;2023-04-25T09:01:34;7.10;1.00
3846;DHT22;1938;50.812;7.738;2023-04-25T09:04:01;7.20;1.00
3846;DHT22;1938;50.812;7.738;2023-04-25T09:06:31;7.50;1.00
3846;DHT22;1938;50.812;7.738;2023-04-25T09:09:05;7.90;99.90
3846;DHT22;1938;50.812;7.738;2023-04-25T09:11:32;8.10;99.90
3846;DHT22;1938;50.812;7.738;2023-04-25T09:14:17;8.60;1.00
3846;DHT22;1938;50.812;7.738;2023-04-25T09:16:59;8.90;99.90
3846;DHT22;1938;50.812;7.738;2023-04-25T09:19:30;9.30;99.90
3846;DHT22;1938;50.812;7.738;2023-04-25T09:21:58;9.60;99.30
3846;DHT22;1938;50.812;7.738;2023-04-25T09:24:42;10.00;99.90
3846;DHT22;1938;50.812;7.738;2023-04-25T09:27:10;10.30;77.30
3846;DHT22;1938;50.812;7.738;2023-04-25T09:29:37;10.20;16.60
3846;DHT22;1938;50.812;7.738;2023-04-25T09:32:23;9.90;5.50
3846;DHT22;1938;50.812;7.738;2023-04-25T09:34:51;9.80;7.90
3846;DHT22;1938;50.812;7.738;2023-04-25T09:37:27;9.60;1.00
3846;DHT22;1938;50.812;7.738;2023-04-25T09:39:59;9.40;1.00
3846;DHT22;1938;50.812;7.738;2023-04-25T09:42:26;9.20;1.00
3846;DHT22;1938;50.812;7.738;2023-04-25T09:44:55;9.00;1.00
3846;DHT22;1938;50.812;7.738;2023-04-25T09:47:23;8.90;1.00
3846;DHT22;1938;50.812;7.738;2023-04-25T09:49:49;8.80;1.00
3846;DHT22;1938;50.812;7.738;2023-04-25T09:52:20;8.60;1.00
3846;DHT22;1938;50.812;7.738;2023-04-25T09:54:47;8.60;1.00
3846;DHT22;1938;50.812;7.738;2023-04-25T09:57:18;8.50;1.00
3846;DHT22;1938;50.812;7.738;2023-04-25T09:59:46;8.30;1.00
3846;DHT22;1938;50.812;7.738;2023-04-25T10:02:14;8.30;9.90
3846;DHT22;1938;50.812;7.738;2023-04-25T10:04:40;8.30;9.10
3846;DHT22;1938;50.812;7.738;2023-04-25T10:07:07;8.40;1.00
3846;DHT22;1938;50.812;7.738;2023-04-25T10:09:36;8.50;1.00
3846;DHT22;1938;50.812;7.738;2023-04-25T10:12:03;8.60;1.00
3846;DHT22;1938;50.812;7.738;2023-04-25T10:14:30;8.80;1.00
3846;DHT22;1938;50.812;7.738;2023-04-25T10:16:57;9.10;1.00
3846;DHT22;1938;50.812;7.738;2023-04-25T10:19:24;9.40;1.00
3846;DHT22;1938;50.812;7.738;2023-04-25T10:21:56;9.70;1.00
3846;DHT22;1938;50.812;7.738;2023-04-25T10:24:24;10.10;1.00
3846;DHT22;1938;50.812;7.738;2023-04-25T10:26:51;10.60;1.00
3846;DHT22;1938;50.812;7.738;2023-04-25T10:29:24;10.90;1.00
3846;DHT22;1938;50.812;7.738;2023-04-25T10:31:51;10.90;1.00
3846;DHT22;1938;50.812;7.738;2023-04-25T10:34:17;10.90;1.00
3846;DHT22;1938;50.812;7.738;2023-04-25T10:36:51;10.70;1.00
3846;DHT22;1938;50.812;7.738;2023-04-25T10:39:27;10.40;1.00
3846;DHT22;1938;50.812;7.738;2023-04-25T10:41:56;9.50;99.90
3846;DHT22;1938;50.812;7.738;2023-04-25T10:44:22;8.90;99.90
3846;DHT22;1938;50.812;7.738;2023-04-25T10:46:47;8.70;1.00
3846;DHT22;1938;50.812;7.738;2023-04-25T10:49:48;8.70;1.00
3846;DHT22;1938;50.812;7.738;2023-04-25T10:55:02;8.20;1.00
3846;DHT22;1938;50.812;7.738;2023-04-25T10:57:42;8.20;1.00
3846;DHT22;1938;50.812;7.738;2023-04-25T11:00:10;8.00;1.00
3846;DHT22;1938;50.812;7.738;2023-04-25T11:02:51;7.80;1.00
3846;DHT22;1938;50.812;7.738;2023-04-25T11:05:25;7.80;1.00
3846;DHT22;1938;50.812;7.738;2023-04-25T11:07:55;7.70;1.00
3846;DHT22;1938;50.812;7.738;2023-04-25T11:10:31;7.50;43.40
3846;DHT22;1938;50.812;7.738;2023-04-25T11:12:58;7.50;1.00
3846;DHT22;1938;50.812;7.738;2023-04-25T11:15:26;7.50;64.20
3846;DHT22;1938;50.812;7.738;2023-04-25T11:17:52;7.30;85.60
3846;DHT22;1938;50.812;7.738;2023-04-25T11:20:18;7.30;99.90
3846;DHT22;1938;50.812;7.738;2023-04-25T11:22:45;7.30;99.90
3846;DHT22;1938;50.812;7.738;2023-04-25T11:25:13;7.20;99.90
3846;DHT22;1938;50.812;7.738;2023-04-25T11:27:55;7.40;99.90
3846;DHT22;1938;50.812;7.738;2023-04-25T11:30:25;7.50;3.40
3846;DHT22;1938;50.812;7.738;2023-04-25T11:32:51;7.90;95.40
3846;DHT22;1938;50.812;7.738;2023-04-25T11:35:18;8.40;35.70
3846;DHT22;1938;50.812;7.738;2023-04-25T11:37:44;9.00;1.00
3846;DHT22;1938;50.812;7.738;2023-04-25T11:40:10;9.40;99.90
3846;DHT22;1938;50.812;7.738;2023-04-25T11:42:43;9.70;99.90
3846;DHT22;1938;50.812;7.738;2023-04-25T11:45:09;10.10;1.00
3846;DHT22;1938;50.812;7.738;2023-04-25T11:47:36;10.00;1.00
3846;DHT22;1938;50.812;7.738;2023-04-25T11:50:04;9.50;1.00
3846;DHT22;1938;50.812;7.738;2023-04-25T11:52:41;9.40;1.00
3846;DHT22;1938;50.812;7.738;2023-04-25T11:55:13;9.10;1.00
3846;DHT22;1938;50.812;7.738;2023-04-25T11:57:40;8.90;1.00
3846;DHT22;1938;50.812;7.738;2023-04-25T12:00:17;8.80;1.00
3846;DHT22;1938;50.812;7.738;2023-04-25T12:02:45;8.80;1.00
3846;DHT22;1938;50.812;7.738;2023-04-25T12:05:11;8.60;1.00
3846;DHT22;1938;50.812;7.738;2023-04-25T12:07:37;8.50;1.00
3846;DHT22;1938;50.812;7.738;2023-04-25T12:10:10;8.50;1.00
3846;DHT22;1938;50.812;7.738;2023-04-25T12:12:37;8.40;1.00
3846;DHT22;1938;50.812;7.738;2023-04-25T12:17:36;8.50;1.00
3846;DHT22;1938;50.812;7.738;2023-04-25T12:20:09;8.50;1.00
3846;DHT22;1938;50.812;7.738;2023-04-25T12:22:35;8.70;1.00
3846;DHT22;1938;50.812;7.738;2023-04-25T12:25:02;8.90;1.00
3846;DHT22;1938;50.812;7.738;2023-04-25T12:27:30;9.00;1.00
3846;DHT22;1938;50.812;7.738;2023-04-25T12:29:57;9.00;1.00
3846;DHT22;1938;50.812;7.738;2023-04-25T12:32:23;9.30;1.00
3846;DHT22;1938;50.812;7.738;2023-04-25T12:34:48;9.40;99.90
3846;DHT22;1938;50.812;7.738;2023-04-25T12:37:14;9.90;1.00
3846;DHT22;1938;50.812;7.738;2023-04-25T12:39:40;10.30;1.00
3846;DHT22;1938;50.812;7.738;2023-04-25T12:42:05;10.30;1.00
3846;DHT22;1938;50.812;7.738;2023-04-25T12:44:33;10.40;99.90
3846;DHT22;1938;50.812;7.738;2023-04-25T12:46:59;10.50;99.90
3846;DHT22;1938;50.812;7.738;2023-04-25T12:49:25;10.60;99.90
3846;DHT22;1938;50.812;7.738;2023-04-25T12:51:50;10.40;99.90
3846;DHT22;1938;50.812;7.738;2023-04-25T12:54:17;10.20;99.90
3846;DHT22;1938;50.812;7.738;2023-04-25T12:56:42;10.00;99.90
3846;DHT22;1938;50.812;7.738;2023-04-25T12:59:08;10.10;99.90
3846;DHT22;1938;50.812;7.738;2023-04-25T13:01:35;9.90;99.90
3846;DHT22;1938;50.812;7.738;2023-04-25T13:04:00;9.70;99.90
3846;DHT22;1938;50.812;7.738;2023-04-25T13:06:26;9.60;99.90
3846;DHT22;1938;50.812;7.738;2023-04-25T13:08:52;9.40;99.90
3846;DHT22;1938;50.812;7.738;2023-04-25T13:11:18;9.30;99.90
3846;DHT22;1938;50.812;7.738;2023-04-25T13:13:44;9.30;99.90
3846;DHT22;1938;50.812;7.738;2023-04-25T13:16:10;9.70;99.90
3846;DHT22;1938;50.812;7.738;2023-04-25T13:18:39;9.90;99.90
3846;DHT22;1938;50.812;7.738;2023-04-25T13:21:04;10.30;99.90
3846;DHT22;1938;50.812;7.738;2023-04-25T13:23:30;10.60;99.90
3846;DHT22;1938;50.812;7.738;2023-04-25T13:25:56;10.80;99.90
3846;DHT22;1938;50.812;7.738;2023-04-25T13:28:26;10.70;99.90
3846;DHT22;1938;50.812;7.738;2023-04-25T13:30:51;10.40;99.90
3846;DHT22;1938;50.812;7.738;2023-04-25T13:33:18;10.20;99.90
3846;DHT22;1938;50.812;7.738;2023-04-25T13:35:43;10.00;99.90
3846;DHT22;1938;50.812;7.738;2023-04-25T13:38:12;9.80;99.90
3846;DHT22;1938;50.812;7.738;2023-04-25T13:40:38;9.50;99.90
3846;DHT22;1938;50.812;7.738;2023-04-25T13:43:03;9.30;99.90
3846;DHT22;1938;50.812;7.738;2023-04-25T13:45:29;9.10;99.90
3846;DHT22;1938;50.812;7.738;2023-04-25T13:47:55;9.00;99.90
3846;DHT22;1938;50.812;7.738;2023-04-25T13:50:20;8.90;99.90
3846;DHT22;1938;50.812;7.738;2023-04-25T13:52:46;8.90;99.90
3846;DHT22;1938;50.812;7.738;2023-04-25T13:55:12;8.90;99.90
3846;DHT22;1938;50.812;7.738;2023-04-25T13:57:37;8.70;99.90
3846;DHT22;1938;50.812;7.738;2023-04-25T14:00:04;8.70;99.90
3846;DHT22;1938;50.812;7.738;2023-04-25T14:02:37;8.70;99.90
3846;DHT22;1938;50.812;7.738;2023-04-25T14:05:06;8.80;99.90
3846;DHT22;1938;50.812;7.738;2023-04-25T14:07:34;9.10;99.90
3846;DHT22;1938;50.812;7.738;2023-04-25T14:10:00;9.60;99.90
3846;DHT22;1938;50.812;7.738;2023-04-25T14:12:26;9.90;99.90
3846;DHT22;1938;50.812;7.738;2023-04-25T14:14:52;10.10;99.90
3846;DHT22;1938;50.812;7.738;2023-04-25T14:17:18;10.40;99.90
3846;DHT22;1938;50.812;7.738;2023-04-25T14:19:44;10.70;99.90
3846;DHT22;1938;50.812;7.738;2023-04-25T14:22:13;10.70;99.90
3846;DHT22;1938;50.812;7.738;2023-04-25T14:24:38;10.40;99.90
3846;DHT22;1938;50.812;7.738;2023-04-25T14:27:04;10.10;99.90
3846;DHT22;1938;50.812;7.738;2023-04-25T14:29:30;10.00;99.90
3846;DHT22;1938;50.812;7.738;2023-04-25T14:31:56;9.60;99.90
3846;DHT22;1938;50.812;7.738;2023-04-25T14:34:23;9.40;99.90
3846;DHT22;1938;50.812;7.738;2023-04-25T14:36:49;9.20;99.90
3846;DHT22;1938;50.812;7.738;2023-04-25T14:39:15;9.00;99.90
3846;DHT22;1938;50.812;7.738;2023-04-25T14:41:40;9.10;99.90
3846;DHT22;1938;50.812;7.738;2023-04-25T14:44:06;9.10;99.90
3846;DHT22;1938;50.812;7.738;2023-04-25T14:46:31;9.00;99.90
3846;DHT22;1938;50.812;7.738;2023-04-25T14:48:57;8.90;99.90
3846;DHT22;1938;50.812;7.738;2023-04-25T14:51:23;8.80;99.90
3846;DHT22;1938;50.812;7.738;2023-04-25T14:53:48;8.90;99.90
3846;DHT22;1938;50.812;7.738;2023-04-25T14:56:14;8.90;99.90
3846;DHT22;1938;50.812;7.738;2023-04-25T14:58:40;8.90;99.90
3846;DHT22;1938;50.812;7.738;2023-04-25T15:01:05;9.00;99.90
3846;DHT22;1938;50.812;7.738;2023-04-25T15:03:32;9.30;99.90
3846;DHT22;1938;50.812;7.738;2023-04-25T15:05:57;9.40;99.90
3846;DHT22;1938;50.812;7.738;2023-04-25T15:08:23;9.40;99.90
3846;DHT22;1938;50.812;7.738;2023-04-25T15:10:49;9.50;99.90
3846;DHT22;1938;50.812;7.738;2023-04-25T15:13:14;9.60;99.90
3846;DHT22;1938;50.812;7.738;2023-04-25T15:15:40;9.60;99.90
3846;DHT22;1938;50.812;7.738;2023-04-25T15:18:06;9.50;99.90
3846;DHT22;1938;50.812;7.738;2023-04-25T15:20:32;9.20;99.90
3846;DHT22;1938;50.812;7.738;2023-04-25T15:22:57;9.40;99.90
3846;DHT22;1938;50.812;7.738;2023-04-25T15:25:23;9.60;99.90
3846;DHT22;1938;50.812;7.738;2023-04-25T15:27:49;9.80;99.90
3846;DHT22;1938;50.812;7.738;2023-04-25T15:30:17;9.90;99.90
3846;DHT22;1938;50.812;7.738;2023-04-25T15:32:46;10.00;99.90
3846;DHT22;1938;50.812;7.738;2023-04-25T15:35:13;10.10;99.90
3846;DHT22;1938;50.812;7.738;2023-04-25T15:37:40;10.20;99.90
3846;DHT22;1938;50.812;7.738;2023-04-25T15:40:07;10.40;99.90
3846;DHT22;1938;50.812;7.738;2023-04-25T15:42:41;10.40;99.90
3846;DHT22;1938;50.812;7.738;2023-04-25T15:45:09;10.30;99.90
3846;DHT22;1938;50.812;7.738;2023-04-25T15:47:36;10.30;99.90
3846;DHT22;1938;50.812;7.738;2023-04-25T15:50:04;10.30;99.90
3846;DHT22;1938;50.812;7.738;2023-04-25T15:52:32;10.20;99.90
3846;DHT22;1938;50.812;7.738;2023-04-25T15:54:58;10.20;99.90
3846;DHT22;1938;50.812;7.738;2023-04-25T15:57:23;10.10;99.90
3846;DHT22;1938;50.812;7.738;2023-04-25T15:59:49;10.00;99.90
3846;DHT22;1938;50.812;7.738;2023-04-25T16:02:15;9.70;99.90
3846;DHT22;1938;50.812;7.738;2023-04-25T16:04:41;9.50;99.90
3846;DHT22;1938;50.812;7.738;2023-04-25T16:07:06;9.30;99.90
3846;DHT22;1938;50.812;7.738;2023-04-25T16:09:36;9.00;99.90
3846;DHT22;1938;50.812;7.738;2023-04-25T16:12:02;8.70;99.90
3846;DHT22;1938;50.812;7.738;2023-04-25T16:14:28;8.50;99.90
3846;DHT22;1938;50.812;7.738;2023-04-25T16:16:54;8.40;99.90
3846;DHT22;1938;50.812;7.738;2023-04-25T16:19:20;8.10;99.90
3846;DHT22;1938;50.812;7.738;2023-04-25T16:21:46;8.00;99.90